sensor_id;sensor_type;location;lat;lon;timestamp;P1;durP1;ratioP1;P2;durP2;ratioP2
12970;SDS011;6550;48.650;8.774;2023-06-24T00:02:25;7.93;;;4.20;;
12970;SDS011;6550;48.650;8.774;2023-06-24T00:04:53;5.10;;;4.43;;
12970;SDS011;6550;48.650;8.774;2023-06-24T00:07:20;5.03;;;4.40;;
12970;SDS011;6550;48.650;8.774;2023-06-24T00:09:48;4.17;;;3.77;;
12970;SDS011;6550;48.650;8.774;2023-06-24T00:12:16;4.30;;;3.90;;
12970;SDS011;6550;48.650;8.774;2023-06-24T00:14:46;5.03;;;4.33;;
12970;SDS011;6550;48.650;8.774;2023-06-24T00:17:13;5.70;;;3.80;;
12970;SDS011;6550;48.650;8.774;2023-06-24T00:19:46;4.33;;;3.63;;
12970;SDS011;6550;48.650;8.774;2023-06-24T00:22:13;8.88;;;4.40;;
12970;SDS011;6550;48.650;8.774;2023-06-24T00:24:41;6.50;;;3.90;;
12970;SDS011;6550;48.650;8.774;2023-06-24T00:27:09;4.40;;;4.00;;
12970;SDS011;6550;48.650;8.774;2023-06-24T00:29:37;6.27;;;4.00;;
12970;SDS011;6550;48.650;8.774;2023-06-24T00:32:04;7.37;;;4.10;;
12970;SDS011;6550;48.650;8.774;2023-06-24T00:34:33;4.73;;;4.20;;
12970;SDS011;6550;48.650;8.774;2023-06-24T00:37:00;5.57;;;3.90;;
12970;SDS011;6550;48.650;8.774;2023-06-24T00:39:31;4.50;;;4.10;;
12970;SDS011;6550;48.650;8.774;2023-06-24T00:41:58;6.95;;;4.72;;
12970;SDS011;6550;48.650;8.774;2023-06-24T00:44:28;7.00;;;4.23;;
12970;SDS011;6550;48.650;8.774;2023-06-24T00:46:55;4.70;;;3.77;;
12970;SDS011;6550;48.650;8.774;2023-06-24T00:49:22;4.23;;;3.93;;
12970;SDS011;6550;48.650;8.774;2023-06-24T00:51:51;4.47;;;4.07;;
12970;SDS011;6550;48.650;8.774;2023-06-24T00:54:18;6.70;;;4.17;;
12970;SDS011;6550;48.650;8.774;2023-06-24T00:56:45;4.63;;;4.13;;
12970;SDS011;6550;48.650;8.774;2023-06-24T00:59:15;4.23;;;3.83;;
12970;SDS011;6550;48.650;8.774;2023-06-24T01:01:43;5.03;;;3.93;;
12970;SDS011;6550;48.650;8.774;2023-06-24T01:04:12;4.80;;;3.63;;
12970;SDS011;6550;48.650;8.774;2023-06-24T01:06:42;4.97;;;3.80;;
12970;SDS011;6550;48.650;8.774;2023-06-24T01:09:10;4.23;;;3.83;;
12970;SDS011;6550;48.650;8.774;2023-06-24T01:11:41;4.83;;;4.07;;
12970;SDS011;6550;48.650;8.774;2023-06-24T01:14:08;5.75;;;4.20;;
12970;SDS011;6550;48.650;8.774;2023-06-24T01:16:56;9.67;;;4.20;;
12970;SDS011;6550;48.650;8.774;2023-06-24T01:28:17;5.80;;;3.73;;
12970;SDS011;6550;48.650;8.774;2023-06-24T01:36:35;4.20;;;3.80;;
12970;SDS011;6550;48.650;8.774;2023-06-24T01:39:07;7.60;;;4.10;;
12970;SDS011;6550;48.650;8.774;2023-06-24T01:41:37;5.17;;;4.17;;
12970;SDS011;6550;48.650;8.774;2023-06-24T01:44:21;11.30;;;3.77;;
12970;SDS011;6550;48.650;8.774;2023-06-24T01:46:52;5.03;;;4.03;;
12970;SDS011;6550;48.650;8.774;2023-06-24T01:49:23;5.13;;;4.22;;
12970;SDS011;6550;48.650;8.774;2023-06-24T01:51:56;6.30;;;4.13;;
12970;SDS011;6550;48.650;8.774;2023-06-24T01:54:29;5.30;;;3.80;;
12970;SDS011;6550;48.650;8.774;2023-06-24T01:56:57;8.50;;;3.77;;
12970;SDS011;6550;48.650;8.774;2023-06-24T01:59:28;4.27;;;3.87;;
12970;SDS011;6550;48.650;8.774;2023-06-24T02:01:55;5.33;;;3.90;;
12970;SDS011;6550;48.650;8.774;2023-06-24T02:04:24;4.70;;;4.30;;
12970;SDS011;6550;48.650;8.774;2023-06-24T02:07:00;4.50;;;4.03;;
12970;SDS011;6550;48.650;8.774;2023-06-24T02:09:29;6.00;;;3.80;;
12970;SDS011;6550;48.650;8.774;2023-06-24T02:11:58;3.90;;;3.47;;
12970;SDS011;6550;48.650;8.774;2023-06-24T02:14:29;4.80;;;3.80;;
12970;SDS011;6550;48.650;8.774;2023-06-24T02:16:58;6.63;;;4.03;;
12970;SDS011;6550;48.650;8.774;2023-06-24T02:19:30;5.40;;;3.93;;
12970;SDS011;6550;48.650;8.774;2023-06-24T02:21:59;4.40;;;4.00;;
12970;SDS011;6550;48.650;8.774;2023-06-24T02:24:28;5.30;;;3.90;;
12970;SDS011;6550;48.650;8.774;2023-06-24T02:26:58;7.20;;;4.60;;
12970;SDS011;6550;48.650;8.774;2023-06-24T02:29:26;4.70;;;4.20;;
12970;SDS011;6550;48.650;8.774;2023-06-24T02:31:54;6.90;;;3.80;;
12970;SDS011;6550;48.650;8.774;2023-06-24T02:34:23;4.27;;;3.87;;
12970;SDS011;6550;48.650;8.774;2023-06-24T02:36:50;4.50;;;3.67;;
12970;SDS011;6550;48.650;8.774;2023-06-24T02:39:17;6.47;;;4.00;;
12970;SDS011;6550;48.650;8.774;2023-06-24T02:41:44;5.03;;;3.90;;
12970;SDS011;6550;48.650;8.774;2023-06-24T02:44:13;4.23;;;3.33;;
12970;SDS011;6550;48.650;8.774;2023-06-24T02:46:43;4.87;;;4.20;;
12970;SDS011;6550;48.650;8.774;2023-06-24T02:49:12;5.27;;;3.90;;
12970;SDS011;6550;48.650;8.774;2023-06-24T02:51:41;4.23;;;3.83;;
12970;SDS011;6550;48.650;8.774;2023-06-24T02:54:09;4.70;;;3.87;;
12970;SDS011;6550;48.650;8.774;2023-06-24T02:56:41;3.60;;;3.30;;
12970;SDS011;6550;48.650;8.774;2023-06-24T02:59:13;5.57;;;4.10;;
12970;SDS011;6550;48.650;8.774;2023-06-24T03:01:40;4.20;;;3.67;;
12970;SDS011;6550;48.650;8.774;2023-06-24T03:04:11;5.17;;;3.73;;
12970;SDS011;6550;48.650;8.774;2023-06-24T03:06:38;6.10;;;4.37;;
12970;SDS011;6550;48.650;8.774;2023-06-24T03:09:06;4.40;;;3.97;;
12970;SDS011;6550;48.650;8.774;2023-06-24T03:11:40;6.50;;;3.70;;
12970;SDS011;6550;48.650;8.774;2023-06-24T03:14:08;4.88;;;4.15;;
12970;SDS011;6550;48.650;8.774;2023-06-24T03:16:38;7.20;;;4.23;;
12970;SDS011;6550;48.650;8.774;2023-06-24T03:19:07;6.57;;;3.77;;
12970;SDS011;6550;48.650;8.774;2023-06-24T03:21:37;4.70;;;4.10;;
12970;SDS011;6550;48.650;8.774;2023-06-24T03:24:06;4.93;;;4.17;;
12970;SDS011;6550;48.650;8.774;2023-06-24T03:26:34;5.57;;;4.27;;
12970;SDS011;6550;48.650;8.774;2023-06-24T03:29:02;8.60;;;4.20;;
12970;SDS011;6550;48.650;8.774;2023-06-24T03:31:29;4.47;;;3.80;;
12970;SDS011;6550;48.650;8.774;2023-06-24T03:33:59;5.80;;;3.90;;
12970;SDS011;6550;48.650;8.774;2023-06-24T03:36:26;4.27;;;3.87;;
12970;SDS011;6550;48.650;8.774;2023-06-24T03:38:52;4.77;;;3.90;;
12970;SDS011;6550;48.650;8.774;2023-06-24T03:41:22;4.87;;;4.37;;
12970;SDS011;6550;48.650;8.774;2023-06-24T03:43:51;5.00;;;4.07;;
12970;SDS011;6550;48.650;8.774;2023-06-24T03:46:19;5.67;;;3.73;;
12970;SDS011;6550;48.650;8.774;2023-06-24T03:48:49;6.00;;;4.20;;
12970;SDS011;6550;48.650;8.774;2023-06-24T03:51:16;5.40;;;3.90;;
12970;SDS011;6550;48.650;8.774;2023-06-24T03:53:43;4.17;;;3.77;;
12970;SDS011;6550;48.650;8.774;2023-06-24T03:56:12;6.17;;;4.00;;
12970;SDS011;6550;48.650;8.774;2023-06-24T03:58:41;7.07;;;3.87;;
12970;SDS011;6550;48.650;8.774;2023-06-24T04:01:08;5.93;;;3.70;;
12970;SDS011;6550;48.650;8.774;2023-06-24T04:03:37;7.67;;;3.77;;
12970;SDS011;6550;48.650;8.774;2023-06-24T04:06:07;3.97;;;3.60;;
12970;SDS011;6550;48.650;8.774;2023-06-24T04:08:33;4.30;;;4.00;;
12970;SDS011;6550;48.650;8.774;2023-06-24T04:11:05;8.17;;;4.47;;
12970;SDS011;6550;48.650;8.774;2023-06-24T04:13:34;4.27;;;3.87;;
12970;SDS011;6550;48.650;8.774;2023-06-24T04:16:01;4.80;;;4.30;;
12970;SDS011;6550;48.650;8.774;2023-06-24T04:18:28;5.03;;;4.17;;
12970;SDS011;6550;48.650;8.774;2023-06-24T04:20:55;4.60;;;4.20;;
12970;SDS011;6550;48.650;8.774;2023-06-24T04:23:24;6.90;;;4.23;;
12970;SDS011;6550;48.650;8.774;2023-06-24T04:25:50;6.63;;;3.67;;
12970;SDS011;6550;48.650;8.774;2023-06-24T04:28:17;8.00;;;4.03;;
12970;SDS011;6550;48.650;8.774;2023-06-24T04:30:45;5.27;;;3.90;;
12970;SDS011;6550;48.650;8.774;2023-06-24T04:33:14;4.43;;;3.83;;
12970;SDS011;6550;48.650;8.774;2023-06-24T04:35:41;7.07;;;4.00;;
12970;SDS011;6550;48.650;8.774;2023-06-24T04:38:08;4.67;;;3.90;;
12970;SDS011;6550;48.650;8.774;2023-06-24T04:40:35;6.20;;;4.13;;
12970;SDS011;6550;48.650;8.774;2023-06-24T04:43:02;4.57;;;3.60;;
12970;SDS011;6550;48.650;8.774;2023-06-24T04:45:31;4.13;;;3.60;;
12970;SDS011;6550;48.650;8.774;2023-06-24T04:47:58;8.10;;;4.00;;
12970;SDS011;6550;48.650;8.774;2023-06-24T04:50:25;6.17;;;3.73;;
12970;SDS011;6550;48.650;8.774;2023-06-24T04:52:54;4.60;;;4.10;;
12970;SDS011;6550;48.650;8.774;2023-06-24T04:55:22;4.60;;;3.83;;
12970;SDS011;6550;48.650;8.774;2023-06-24T04:57:52;5.33;;;4.43;;
12970;SDS011;6550;48.650;8.774;2023-06-24T05:00:18;5.50;;;3.80;;
12970;SDS011;6550;48.650;8.774;2023-06-24T05:02:49;5.17;;;4.33;;
12970;SDS011;6550;48.650;8.774;2023-06-24T05:05:19;7.63;;;4.30;;
12970;SDS011;6550;48.650;8.774;2023-06-24T05:07:47;6.30;;;4.10;;
12970;SDS011;6550;48.650;8.774;2023-06-24T05:10:16;3.87;;;3.57;;
12970;SDS011;6550;48.650;8.774;2023-06-24T05:12:43;7.37;;;4.20;;
12970;SDS011;6550;48.650;8.774;2023-06-24T05:15:12;5.50;;;4.07;;
12970;SDS011;6550;48.650;8.774;2023-06-24T05:17:42;4.83;;;4.43;;
12970;SDS011;6550;48.650;8.774;2023-06-24T05:20:09;7.05;;;4.38;;
12970;SDS011;6550;48.650;8.774;2023-06-24T05:22:36;4.10;;;3.50;;
12970;SDS011;6550;48.650;8.774;2023-06-24T05:25:03;4.30;;;3.93;;
12970;SDS011;6550;48.650;8.774;2023-06-24T05:27:33;6.03;;;4.17;;
12970;SDS011;6550;48.650;8.774;2023-06-24T05:30:01;6.50;;;4.10;;
12970;SDS011;6550;48.650;8.774;2023-06-24T05:32:28;4.83;;;4.23;;
12970;SDS011;6550;48.650;8.774;2023-06-24T05:35:00;5.60;;;4.17;;
12970;SDS011;6550;48.650;8.774;2023-06-24T05:37:27;6.43;;;4.10;;
12970;SDS011;6550;48.650;8.774;2023-06-24T05:39:54;6.10;;;3.80;;
12970;SDS011;6550;48.650;8.774;2023-06-24T05:42:26;4.97;;;4.30;;
12970;SDS011;6550;48.650;8.774;2023-06-24T05:44:53;4.00;;;3.70;;
12970;SDS011;6550;48.650;8.774;2023-06-24T05:47:20;3.57;;;3.33;;
12970;SDS011;6550;48.650;8.774;2023-06-24T05:49:52;3.87;;;3.47;;
12970;SDS011;6550;48.650;8.774;2023-06-24T05:52:19;5.00;;;4.20;;
12970;SDS011;6550;48.650;8.774;2023-06-24T05:54:45;3.73;;;3.43;;
12970;SDS011;6550;48.650;8.774;2023-06-24T05:57:12;5.93;;;3.70;;
12970;SDS011;6550;48.650;8.774;2023-06-24T05:59:39;4.63;;;3.50;;
12970;SDS011;6550;48.650;8.774;2023-06-24T06:02:06;3.70;;;3.40;;
12970;SDS011;6550;48.650;8.774;2023-06-24T06:04:33;5.20;;;3.83;;
12970;SDS011;6550;48.650;8.774;2023-06-24T06:07:00;4.43;;;4.03;;
12970;SDS011;6550;48.650;8.774;2023-06-24T06:09:27;4.20;;;3.80;;
12970;SDS011;6550;48.650;8.774;2023-06-24T06:11:54;5.17;;;3.37;;
12970;SDS011;6550;48.650;8.774;2023-06-24T06:14:25;4.17;;;3.77;;
12970;SDS011;6550;48.650;8.774;2023-06-24T06:16:52;3.70;;;3.40;;
12970;SDS011;6550;48.650;8.774;2023-06-24T06:19:19;4.67;;;3.57;;
12970;SDS011;6550;48.650;8.774;2023-06-24T06:21:46;3.50;;;3.20;;
12970;SDS011;6550;48.650;8.774;2023-06-24T06:24:12;4.13;;;3.80;;
12970;SDS011;6550;48.650;8.774;2023-06-24T06:26:45;4.30;;;3.97;;
12970;SDS011;6550;48.650;8.774;2023-06-24T06:29:12;4.20;;;3.80;;
12970;SDS011;6550;48.650;8.774;2023-06-24T06:31:42;4.10;;;3.70;;
12970;SDS011;6550;48.650;8.774;2023-06-24T06:34:09;6.40;;;3.50;;
12970;SDS011;6550;48.650;8.774;2023-06-24T06:36:38;5.10;;;4.00;;
12970;SDS011;6550;48.650;8.774;2023-06-24T06:39:05;6.17;;;3.63;;
12970;SDS011;6550;48.650;8.774;2023-06-24T06:41:32;4.65;;;4.25;;
12970;SDS011;6550;48.650;8.774;2023-06-24T06:43:59;3.83;;;3.53;;
12970;SDS011;6550;48.650;8.774;2023-06-24T06:46:26;5.47;;;3.47;;
12970;SDS011;6550;48.650;8.774;2023-06-24T06:48:53;4.13;;;3.53;;
12970;SDS011;6550;48.650;8.774;2023-06-24T06:51:20;3.50;;;3.20;;
12970;SDS011;6550;48.650;8.774;2023-06-24T06:53:49;4.70;;;4.20;;
12970;SDS011;6550;48.650;8.774;2023-06-24T06:56:17;4.50;;;3.80;;
12970;SDS011;6550;48.650;8.774;2023-06-24T06:58:47;4.00;;;3.60;;
12970;SDS011;6550;48.650;8.774;2023-06-24T07:01:13;4.30;;;3.70;;
12970;SDS011;6550;48.650;8.774;2023-06-24T07:03:40;5.80;;;4.00;;
12970;SDS011;6550;48.650;8.774;2023-06-24T07:06:12;3.57;;;3.27;;
12970;SDS011;6550;48.650;8.774;2023-06-24T07:08:41;4.27;;;3.77;;
12970;SDS011;6550;48.650;8.774;2023-06-24T07:11:10;3.77;;;2.93;;
12970;SDS011;6550;48.650;8.774;2023-06-24T07:13:42;4.23;;;3.17;;
12970;SDS011;6550;48.650;8.774;2023-06-24T07:16:12;3.40;;;3.07;;
12970;SDS011;6550;48.650;8.774;2023-06-24T07:18:39;3.23;;;2.80;;
12970;SDS011;6550;48.650;8.774;2023-06-24T07:21:07;3.33;;;2.97;;
12970;SDS011;6550;48.650;8.774;2023-06-24T07:23:34;5.67;;;3.27;;
12970;SDS011;6550;48.650;8.774;2023-06-24T07:26:04;3.43;;;3.13;;
12970;SDS011;6550;48.650;8.774;2023-06-24T07:28:33;3.30;;;3.00;;
12970;SDS011;6550;48.650;8.774;2023-06-24T07:31:02;6.00;;;3.40;;
12970;SDS011;6550;48.650;8.774;2023-06-24T07:33:31;5.40;;;3.13;;
12970;SDS011;6550;48.650;8.774;2023-06-24T07:35:58;3.10;;;2.80;;
12970;SDS011;6550;48.650;8.774;2023-06-24T07:38:30;4.63;;;3.80;;
12970;SDS011;6550;48.650;8.774;2023-06-24T07:40:59;4.33;;;3.23;;
12970;SDS011;6550;48.650;8.774;2023-06-24T07:43:26;3.40;;;3.10;;
12970;SDS011;6550;48.650;8.774;2023-06-24T07:45:53;5.07;;;3.27;;
12970;SDS011;6550;48.650;8.774;2023-06-24T07:48:20;3.50;;;3.20;;
12970;SDS011;6550;48.650;8.774;2023-06-24T07:50:47;3.83;;;2.90;;
12970;SDS011;6550;48.650;8.774;2023-06-24T07:53:16;3.40;;;3.10;;
12970;SDS011;6550;48.650;8.774;2023-06-24T07:55:43;5.57;;;3.07;;
12970;SDS011;6550;48.650;8.774;2023-06-24T07:58:12;3.33;;;3.03;;
12970;SDS011;6550;48.650;8.774;2023-06-24T08:00:41;3.22;;;2.92;;
12970;SDS011;6550;48.650;8.774;2023-06-24T08:03:12;3.80;;;3.13;;
12970;SDS011;6550;48.650;8.774;2023-06-24T08:05:39;2.93;;;2.63;;
12970;SDS011;6550;48.650;8.774;2023-06-24T08:08:06;3.43;;;3.03;;
12970;SDS011;6550;48.650;8.774;2023-06-24T08:10:34;2.97;;;2.67;;
12970;SDS011;6550;48.650;8.774;2023-06-24T08:13:01;7.07;;;3.20;;
12970;SDS011;6550;48.650;8.774;2023-06-24T08:15:28;3.40;;;3.10;;
12970;SDS011;6550;48.650;8.774;2023-06-24T08:17:57;4.37;;;2.90;;
12970;SDS011;6550;48.650;8.774;2023-06-24T08:20:25;4.57;;;3.07;;
12970;SDS011;6550;48.650;8.774;2023-06-24T08:22:52;3.13;;;2.87;;
12970;SDS011;6550;48.650;8.774;2023-06-24T08:25:21;3.47;;;3.13;;
12970;SDS011;6550;48.650;8.774;2023-06-24T08:27:48;6.33;;;2.67;;
12970;SDS011;6550;48.650;8.774;2023-06-24T08:30:19;4.63;;;2.93;;
12970;SDS011;6550;48.650;8.774;2023-06-24T08:32:48;3.20;;;2.88;;
12970;SDS011;6550;48.650;8.774;2023-06-24T08:35:17;4.93;;;3.10;;
12970;SDS011;6550;48.650;8.774;2023-06-24T08:37:44;4.30;;;2.47;;
12970;SDS011;6550;48.650;8.774;2023-06-24T08:40:11;3.00;;;2.70;;
12970;SDS011;6550;48.650;8.774;2023-06-24T08:42:38;3.43;;;3.07;;
12970;SDS011;6550;48.650;8.774;2023-06-24T08:45:05;3.50;;;2.63;;
12970;SDS011;6550;48.650;8.774;2023-06-24T08:47:35;5.27;;;2.67;;
12970;SDS011;6550;48.650;8.774;2023-06-24T08:50:12;2.53;;;2.33;;
12970;SDS011;6550;48.650;8.774;2023-06-24T08:52:48;4.23;;;2.50;;
12970;SDS011;6550;48.650;8.774;2023-06-24T08:55:22;3.17;;;2.37;;
12970;SDS011;6550;48.650;8.774;2023-06-24T08:57:50;3.13;;;2.40;;
12970;SDS011;6550;48.650;8.774;2023-06-24T09:00:17;2.63;;;2.43;;
12970;SDS011;6550;48.650;8.774;2023-06-24T09:02:44;2.30;;;2.10;;
12970;SDS011;6550;48.650;8.774;2023-06-24T09:05:13;3.90;;;2.70;;
12970;SDS011;6550;48.650;8.774;2023-06-24T09:07:40;2.50;;;2.23;;
12970;SDS011;6550;48.650;8.774;2023-06-24T09:10:07;3.10;;;2.77;;
12970;SDS011;6550;48.650;8.774;2023-06-24T09:12:35;3.17;;;2.20;;
12970;SDS011;6550;48.650;8.774;2023-06-24T09:15:07;2.80;;;2.20;;
12970;SDS011;6550;48.650;8.774;2023-06-24T09:17:46;2.70;;;2.20;;
12970;SDS011;6550;48.650;8.774;2023-06-24T09:20:13;2.97;;;2.47;;
12970;SDS011;6550;48.650;8.774;2023-06-24T09:22:49;2.60;;;2.40;;
12970;SDS011;6550;48.650;8.774;2023-06-24T09:25:17;3.50;;;2.33;;
12970;SDS011;6550;48.650;8.774;2023-06-24T09:27:50;2.80;;;2.60;;
12970;SDS011;6550;48.650;8.774;2023-06-24T09:30:19;3.63;;;2.80;;
12970;SDS011;6550;48.650;8.774;2023-06-24T09:32:53;2.80;;;2.57;;
12970;SDS011;6550;48.650;8.774;2023-06-24T09:35:24;2.90;;;2.30;;
12970;SDS011;6550;48.650;8.774;2023-06-24T09:37:52;2.30;;;2.10;;
12970;SDS011;6550;48.650;8.774;2023-06-24T09:40:20;4.13;;;2.60;;
12970;SDS011;6550;48.650;8.774;2023-06-24T09:42:57;4.23;;;2.17;;
12970;SDS011;6550;48.650;8.774;2023-06-24T09:45:28;2.67;;;2.47;;
12970;SDS011;6550;48.650;8.774;2023-06-24T09:47:58;2.97;;;2.67;;
12970;SDS011;6550;48.650;8.774;2023-06-24T09:50:28;3.30;;;2.70;;
12970;SDS011;6550;48.650;8.774;2023-06-24T09:52:58;2.50;;;2.30;;
12970;SDS011;6550;48.650;8.774;2023-06-24T09:55:25;2.63;;;2.43;;
12970;SDS011;6550;48.650;8.774;2023-06-24T09:57:53;2.40;;;2.10;;
12970;SDS011;6550;48.650;8.774;2023-06-24T10:00:25;3.43;;;2.40;;
12970;SDS011;6550;48.650;8.774;2023-06-24T10:02:53;2.63;;;2.23;;
12970;SDS011;6550;48.650;8.774;2023-06-24T10:05:24;2.70;;;2.50;;
12970;SDS011;6550;48.650;8.774;2023-06-24T10:07:51;2.50;;;2.30;;
12970;SDS011;6550;48.650;8.774;2023-06-24T10:10:17;4.53;;;2.67;;
12970;SDS011;6550;48.650;8.774;2023-06-24T10:12:44;2.53;;;2.17;;
12970;SDS011;6550;48.650;8.774;2023-06-24T10:15:11;3.20;;;2.40;;
12970;SDS011;6550;48.650;8.774;2023-06-24T10:17:39;8.20;;;2.80;;
12970;SDS011;6550;48.650;8.774;2023-06-24T10:20:06;4.90;;;2.67;;
12970;SDS011;6550;48.650;8.774;2023-06-24T10:22:35;3.30;;;2.40;;
12970;SDS011;6550;48.650;8.774;2023-06-24T10:25:05;2.80;;;2.33;;
12970;SDS011;6550;48.650;8.774;2023-06-24T10:27:38;4.90;;;2.42;;
12970;SDS011;6550;48.650;8.774;2023-06-24T10:30:16;2.97;;;2.40;;
12970;SDS011;6550;48.650;8.774;2023-06-24T10:32:51;3.30;;;2.17;;
12970;SDS011;6550;48.650;8.774;2023-06-24T10:35:22;2.47;;;2.27;;
12970;SDS011;6550;48.650;8.774;2023-06-24T10:37:57;2.17;;;2.00;;
12970;SDS011;6550;48.650;8.774;2023-06-24T10:40:35;3.73;;;2.40;;
12970;SDS011;6550;48.650;8.774;2023-06-24T10:45:50;3.90;;;2.40;;
12970;SDS011;6550;48.650;8.774;2023-06-24T10:48:21;2.60;;;2.20;;
12970;SDS011;6550;48.650;8.774;2023-06-24T10:50:50;2.27;;;2.07;;
12970;SDS011;6550;48.650;8.774;2023-06-24T10:53:17;3.67;;;2.10;;
12970;SDS011;6550;48.650;8.774;2023-06-24T10:55:47;2.30;;;2.10;;
12970;SDS011;6550;48.650;8.774;2023-06-24T10:58:14;3.43;;;2.60;;
12970;SDS011;6550;48.650;8.774;2023-06-24T11:00:42;4.20;;;2.23;;
12970;SDS011;6550;48.650;8.774;2023-06-24T11:03:14;2.47;;;2.27;;
12970;SDS011;6550;48.650;8.774;2023-06-24T11:05:46;2.33;;;2.00;;
12970;SDS011;6550;48.650;8.774;2023-06-24T11:08:14;2.43;;;2.23;;
12970;SDS011;6550;48.650;8.774;2023-06-24T11:10:42;2.27;;;2.07;;
12970;SDS011;6550;48.650;8.774;2023-06-24T11:13:10;2.40;;;2.20;;
12970;SDS011;6550;48.650;8.774;2023-06-24T11:15:38;4.53;;;2.50;;
12970;SDS011;6550;48.650;8.774;2023-06-24T11:18:09;3.10;;;2.43;;
12970;SDS011;6550;48.650;8.774;2023-06-24T11:20:39;2.63;;;2.23;;
12970;SDS011;6550;48.650;8.774;2023-06-24T11:23:09;2.57;;;2.23;;
12970;SDS011;6550;48.650;8.774;2023-06-24T11:25:43;4.53;;;2.20;;
12970;SDS011;6550;48.650;8.774;2023-06-24T11:28:19;3.40;;;2.28;;
12970;SDS011;6550;48.650;8.774;2023-06-24T11:30:48;2.70;;;2.50;;
12970;SDS011;6550;48.650;8.774;2023-06-24T11:33:26;2.63;;;2.20;;
12970;SDS011;6550;48.650;8.774;2023-06-24T11:35:53;2.30;;;2.10;;
12970;SDS011;6550;48.650;8.774;2023-06-24T11:38:21;2.67;;;2.23;;
12970;SDS011;6550;48.650;8.774;2023-06-24T11:40:48;3.03;;;2.20;;
12970;SDS011;6550;48.650;8.774;2023-06-24T11:43:17;2.57;;;2.30;;
12970;SDS011;6550;48.650;8.774;2023-06-24T11:45:47;2.53;;;2.33;;
12970;SDS011;6550;48.650;8.774;2023-06-24T11:48:14;2.63;;;2.30;;
12970;SDS011;6550;48.650;8.774;2023-06-24T11:50:41;4.70;;;2.30;;
12970;SDS011;6550;48.650;8.774;2023-06-24T11:53:10;3.87;;;2.37;;
12970;SDS011;6550;48.650;8.774;2023-06-24T11:55:37;4.33;;;2.20;;
12970;SDS011;6550;48.650;8.774;2023-06-24T11:58:04;2.70;;;2.33;;
12970;SDS011;6550;48.650;8.774;2023-06-24T12:00:32;6.43;;;2.47;;
12970;SDS011;6550;48.650;8.774;2023-06-24T12:03:05;2.93;;;2.23;;
12970;SDS011;6550;48.650;8.774;2023-06-24T12:05:37;4.90;;;2.30;;
12970;SDS011;6550;48.650;8.774;2023-06-24T12:08:11;2.50;;;2.30;;
12970;SDS011;6550;48.650;8.774;2023-06-24T12:10:43;2.57;;;2.23;;
12970;SDS011;6550;48.650;8.774;2023-06-24T12:13:11;3.53;;;2.40;;
12970;SDS011;6550;48.650;8.774;2023-06-24T12:15:38;2.97;;;2.40;;
12970;SDS011;6550;48.650;8.774;2023-06-24T12:18:06;2.40;;;2.20;;
12970;SDS011;6550;48.650;8.774;2023-06-24T12:20:35;2.30;;;2.10;;
12970;SDS011;6550;48.650;8.774;2023-06-24T12:23:05;2.30;;;2.10;;
12970;SDS011;6550;48.650;8.774;2023-06-24T12:25:32;2.20;;;2.00;;
12970;SDS011;6550;48.650;8.774;2023-06-24T12:28:01;3.30;;;2.50;;
12970;SDS011;6550;48.650;8.774;2023-06-24T12:30:28;2.60;;;2.40;;
12970;SDS011;6550;48.650;8.774;2023-06-24T12:32:57;2.73;;;2.00;;
12970;SDS011;6550;48.650;8.774;2023-06-24T12:35:24;3.17;;;2.13;;
12970;SDS011;6550;48.650;8.774;2023-06-24T12:37:54;2.37;;;2.00;;
12970;SDS011;6550;48.650;8.774;2023-06-24T12:40:23;2.77;;;2.53;;
12970;SDS011;6550;48.650;8.774;2023-06-24T12:42:50;2.33;;;2.13;;
12970;SDS011;6550;48.650;8.774;2023-06-24T12:45:17;4.93;;;2.20;;
12970;SDS011;6550;48.650;8.774;2023-06-24T12:47:46;3.27;;;2.33;;
12970;SDS011;6550;48.650;8.774;2023-06-24T12:50:13;1.97;;;1.87;;
12970;SDS011;6550;48.650;8.774;2023-06-24T12:52:39;2.17;;;2.03;;
12970;SDS011;6550;48.650;8.774;2023-06-24T12:55:09;2.50;;;2.30;;
12970;SDS011;6550;48.650;8.774;2023-06-24T12:57:36;4.20;;;2.27;;
12970;SDS011;6550;48.650;8.774;2023-06-24T13:00:05;4.77;;;2.67;;
12970;SDS011;6550;48.650;8.774;2023-06-24T13:02:33;3.93;;;2.50;;
12970;SDS011;6550;48.650;8.774;2023-06-24T13:05:00;2.70;;;2.50;;
12970;SDS011;6550;48.650;8.774;2023-06-24T13:07:27;3.40;;;2.30;;
12970;SDS011;6550;48.650;8.774;2023-06-24T13:09:57;2.60;;;2.40;;
12970;SDS011;6550;48.650;8.774;2023-06-24T13:12:26;2.70;;;2.50;;
12970;SDS011;6550;48.650;8.774;2023-06-24T13:14:53;2.80;;;2.30;;
12970;SDS011;6550;48.650;8.774;2023-06-24T13:17:20;5.00;;;2.80;;
12970;SDS011;6550;48.650;8.774;2023-06-24T13:19:47;3.37;;;1.93;;
12970;SDS011;6550;48.650;8.774;2023-06-24T13:22:14;2.60;;;2.40;;
12970;SDS011;6550;48.650;8.774;2023-06-24T13:24:41;1.77;;;1.67;;
12970;SDS011;6550;48.650;8.774;2023-06-24T13:27:08;2.30;;;2.10;;
12970;SDS011;6550;48.650;8.774;2023-06-24T13:29:34;2.73;;;2.10;;
12970;SDS011;6550;48.650;8.774;2023-06-24T13:32:03;2.37;;;2.17;;
12970;SDS011;6550;48.650;8.774;2023-06-24T13:34:30;2.50;;;2.30;;
12970;SDS011;6550;48.650;8.774;2023-06-24T13:36:57;3.87;;;2.20;;
12970;SDS011;6550;48.650;8.774;2023-06-24T13:39:26;2.40;;;2.20;;
12970;SDS011;6550;48.650;8.774;2023-06-24T13:41:55;4.97;;;2.20;;
12970;SDS011;6550;48.650;8.774;2023-06-24T13:44:25;3.07;;;2.27;;
12970;SDS011;6550;48.650;8.774;2023-06-24T13:46:52;2.43;;;2.23;;
12970;SDS011;6550;48.650;8.774;2023-06-24T13:49:20;3.30;;;2.50;;
12970;SDS011;6550;48.650;8.774;2023-06-24T13:51:49;3.47;;;2.53;;
12970;SDS011;6550;48.650;8.774;2023-06-24T13:54:16;2.27;;;2.07;;
12970;SDS011;6550;48.650;8.774;2023-06-24T13:56:45;2.47;;;2.27;;
12970;SDS011;6550;48.650;8.774;2023-06-24T13:59:12;2.50;;;2.30;;
12970;SDS011;6550;48.650;8.774;2023-06-24T14:01:39;3.27;;;2.30;;
12970;SDS011;6550;48.650;8.774;2023-06-24T14:04:06;2.63;;;2.43;;
12970;SDS011;6550;48.650;8.774;2023-06-24T14:06:33;3.07;;;2.00;;
12970;SDS011;6550;48.650;8.774;2023-06-24T14:08:59;2.23;;;2.03;;
12970;SDS011;6550;48.650;8.774;2023-06-24T14:11:28;2.73;;;2.30;;
12970;SDS011;6550;48.650;8.774;2023-06-24T14:13:55;2.30;;;2.10;;
12970;SDS011;6550;48.650;8.774;2023-06-24T14:16:27;2.63;;;2.03;;
12970;SDS011;6550;48.650;8.774;2023-06-24T14:18:54;2.07;;;1.90;;
12970;SDS011;6550;48.650;8.774;2023-06-24T14:21:24;2.40;;;2.20;;
12970;SDS011;6550;48.650;8.774;2023-06-24T14:23:51;2.40;;;2.20;;
12970;SDS011;6550;48.650;8.774;2023-06-24T14:26:22;2.67;;;2.27;;
12970;SDS011;6550;48.650;8.774;2023-06-24T14:28:54;1.90;;;1.80;;
12970;SDS011;6550;48.650;8.774;2023-06-24T14:31:23;2.17;;;1.97;;
12970;SDS011;6550;48.650;8.774;2023-06-24T14:33:50;2.30;;;2.10;;
12970;SDS011;6550;48.650;8.774;2023-06-24T14:36:17;4.43;;;2.30;;
12970;SDS011;6550;48.650;8.774;2023-06-24T14:38:44;2.10;;;1.90;;
12970;SDS011;6550;48.650;8.774;2023-06-24T14:41:11;2.50;;;2.30;;
12970;SDS011;6550;48.650;8.774;2023-06-24T14:43:38;2.67;;;2.43;;
12970;SDS011;6550;48.650;8.774;2023-06-24T14:46:05;3.77;;;2.10;;
12970;SDS011;6550;48.650;8.774;2023-06-24T14:48:34;2.87;;;2.10;;
12970;SDS011;6550;48.650;8.774;2023-06-24T14:51:03;1.83;;;1.73;;
12970;SDS011;6550;48.650;8.774;2023-06-24T14:53:30;2.10;;;1.90;;
12970;SDS011;6550;48.650;8.774;2023-06-24T14:55:57;3.60;;;2.30;;
12970;SDS011;6550;48.650;8.774;2023-06-24T14:58:24;2.40;;;2.20;;
12970;SDS011;6550;48.650;8.774;2023-06-24T15:00:51;2.00;;;1.90;;
12970;SDS011;6550;48.650;8.774;2023-06-24T15:03:20;3.57;;;2.10;;
12970;SDS011;6550;48.650;8.774;2023-06-24T15:05:47;2.33;;;2.13;;
12970;SDS011;6550;48.650;8.774;2023-06-24T15:08:14;2.40;;;2.20;;
12970;SDS011;6550;48.650;8.774;2023-06-24T15:10:43;2.50;;;2.30;;
12970;SDS011;6550;48.650;8.774;2023-06-24T15:13:10;1.77;;;1.67;;
12970;SDS011;6550;48.650;8.774;2023-06-24T15:15:36;3.60;;;2.20;;
12970;SDS011;6550;48.650;8.774;2023-06-24T15:18:05;2.20;;;2.10;;
12970;SDS011;6550;48.650;8.774;2023-06-24T15:20:32;2.77;;;2.43;;
12970;SDS011;6550;48.650;8.774;2023-06-24T15:22:59;2.30;;;2.10;;
12970;SDS011;6550;48.650;8.774;2023-06-24T15:25:32;2.60;;;2.10;;
12970;SDS011;6550;48.650;8.774;2023-06-24T15:28:01;4.80;;;2.00;;